Time;durP1;ratioP1;P1;durP2;ratioP2;P2;SDS_P1;SDS_P2;PMS_P1;PMS_P2;Temp;Humidity;BMP_temperature;BMP_pressure;BME280_temperature;BME280_humidity;BME280_pressure;Samples;Min_cycle;Max_cycle;Signal;HPM_P1;HPM_P2
2023/02/02 00:00:51;;;;;;;0.60;0.30;;;4.40;99.90;;;;;;5073658;28;20442;-76
2023/02/02 00:03:18;;;;;;;1.90;0.63;;;4.40;99.90;;;;;;5074933;28;20457;-76
2023/02/02 00:05:48;;;;;;;0.40;0.40;;;4.50;99.90;;;;;;5074264;28;20472;-76
2023/02/02 00:08:15;;;;;;;0.40;0.30;;;4.50;99.90;;;;;;5073941;28;20448;-76
2023/02/02 00:10:42;;;;;;;0.30;0.20;;;4.40;99.90;;;;;;5074278;28;20450;-76
2023/02/02 00:13:09;;;;;;;0.30;0.30;;;4.40;99.90;;;;;;5074831;28;20458;-76
2023/02/02 00:15:35;;;;;;;0.30;0.30;;;4.40;99.90;;;;;;5073618;28;20489;-76
2023/02/02 00:18:02;;;;;;;0.30;0.30;;;4.40;99.90;;;;;;5073823;28;20441;-75
2023/02/02 00:20:29;;;;;;;0.30;0.20;;;4.40;99.90;;;;;;5074081;28;20449;-76
2023/02/02 00:22:57;;;;;;;0.30;0.30;;;4.40;99.90;;;;;;5073720;28;20823;-75
2023/02/02 00:25:24;;;;;;;0.30;0.20;;;4.40;99.90;;;;;;5073625;28;20980;-75
2023/02/02 00:27:51;;;;;;;0.43;0.33;;;4.40;99.90;;;;;;5073641;28;20941;-76
2023/02/02 00:30:18;;;;;;;0.60;0.30;;;4.40;99.90;;;;;;5073649;28;20474;-76
2023/02/02 00:32:47;;;;;;;0.30;0.30;;;4.40;99.90;;;;;;5073624;28;20434;-76
2023/02/02 00:35:14;;;;;;;0.30;0.20;;;4.50;99.90;;;;;;5073441;28;20941;-76
2023/02/02 00:37:40;;;;;;;0.30;0.30;;;4.50;99.90;;;;;;5073554;28;20434;-76
2023/02/02 00:40:10;;;;;;;0.30;0.20;;;4.50;99.90;;;;;;5073746;28;20453;-76
2023/02/02 00:42:37;;;;;;;0.50;0.50;;;4.50;99.90;;;;;;5073728;28;20453;-76
2023/02/02 00:45:16;;;;;;;0.30;0.20;;;4.50;99.90;;;;;;5073607;28;20453;-76
2023/02/02 00:47:44;;;;;;;0.40;0.30;;;4.60;99.90;;;;;;5073380;28;20975;-76
2023/02/02 00:50:13;;;;;;;0.30;0.30;;;4.60;99.90;;;;;;5073518;28;20485;-76
2023/02/02 00:52:39;;;;;;;0.50;0.30;;;4.50;99.90;;;;;;5073275;28;20450;-76
2023/02/02 00:55:09;;;;;;;0.30;0.20;;;4.60;99.90;;;;;;5073498;28;20450;-76
2023/02/02 00:57:36;;;;;;;0.30;0.30;;;4.70;99.90;;;;;;5073551;28;20446;-76
2023/02/02 01:00:05;;;;;;;0.70;0.30;;;4.60;99.90;;;;;;5073159;28;20445;-76
2023/02/02 01:02:32;;;;;;;0.30;0.30;;;4.60;99.90;;;;;;5073484;28;20442;-76
2023/02/02 01:04:59;;;;;;;0.30;0.20;;;4.60;99.90;;;;;;5073165;28;20937;-76
2023/02/02 01:07:26;;;;;;;0.40;0.30;;;4.60;99.90;;;;;;5073350;28;20469;-76
2023/02/02 01:09:52;;;;;;;0.30;0.20;;;4.60;99.90;;;;;;5073331;28;20571;-76
2023/02/02 01:12:20;;;;;;;0.80;0.80;;;4.60;99.90;;;;;;5073229;28;20453;-76
2023/02/02 01:14:47;;;;;;;0.47;0.37;;;4.60;99.90;;;;;;5072832;28;22275;-76
2023/02/02 01:17:14;;;;;;;0.50;0.33;;;4.60;99.90;;;;;;5073296;28;20465;-76
2023/02/02 01:19:41;;;;;;;0.30;0.30;;;4.60;99.90;;;;;;5073288;28;20441;-75
2023/02/02 01:22:08;;;;;;;0.30;0.30;;;4.70;99.90;;;;;;5072941;28;20449;-76
2023/02/02 01:24:35;;;;;;;0.40;0.30;;;4.70;99.90;;;;;;5073260;28;20445;-76
2023/02/02 01:27:02;;;;;;;0.30;0.30;;;4.60;99.90;;;;;;5073180;28;20466;-75
2023/02/02 01:29:30;;;;;;;0.30;0.30;;;4.60;99.90;;;;;;5073099;28;20473;-75
2023/02/02 01:31:56;;;;;;;0.30;0.30;;;4.50;99.90;;;;;;5073167;28;20441;-75
2023/02/02 01:34:23;;;;;;;0.30;0.30;;;4.40;99.90;;;;;;5072838;28;20455;-75
2023/02/02 01:36:50;;;;;;;0.30;0.20;;;4.40;99.90;;;;;;5073099;28;20469;-75
2023/02/02 01:39:17;;;;;;;0.30;0.30;;;4.30;99.90;;;;;;5073126;28;20437;-75
2023/02/02 01:41:43;;;;;;;0.30;0.20;;;4.20;99.90;;;;;;5073093;28;20445;-75
2023/02/02 01:44:47;;;;;;;2.97;0.37;;;4.30;99.90;;;;;;5072751;28;20941;-75
2023/02/02 01:47:15;;;;;;;0.60;0.60;;;4.10;99.90;;;;;;5072704;28;20465;-75
2023/02/02 01:49:42;;;;;;;0.53;0.37;;;4.10;99.90;;;;;;5072922;28;20473;-75
2023/02/02 01:52:10;;;;;;;0.30;0.20;;;4.20;99.90;;;;;;5072646;28;20789;-75
2023/02/02 01:54:40;;;;;;;0.30;0.20;;;4.10;99.90;;;;;;5072724;28;20434;-75
2023/02/02 01:57:30;;;;;;;0.30;0.30;;;4.10;99.90;;;;;;5072625;28;20833;-75
2023/02/02 01:59:58;;;;;;;0.30;0.30;;;4.10;99.90;;;;;;5072997;28;20429;-75
2023/02/02 02:02:28;;;;;;;0.30;0.27;;;4.20;99.90;;;;;;5072922;28;20454;-75
2023/02/02 02:04:56;;;;;;;0.33;0.30;;;4.20;99.90;;;;;;5072899;28;20446;-75
2023/02/02 02:07:23;;;;;;;0.40;0.30;;;4.20;99.90;;;;;;5072815;28;20472;-75
2023/02/02 02:09:50;;;;;;;0.30;0.20;;;4.30;99.90;;;;;;5072750;28;20552;-75
2023/02/02 02:12:16;;;;;;;1.23;0.40;;;4.20;99.90;;;;;;5072835;28;20454;-75
2023/02/02 02:17:45;;;;;;;0.53;0.53;;;4.20;99.90;;;;;;5072819;28;20777;-75
2023/02/02 02:27:13;;;;;;;0.30;0.30;;;4.20;99.90;;;;;;5076298;28;20483;-75
2023/02/02 02:30:06;;;;;;;0.40;0.40;;;4.20;99.90;;;;;;5076196;28;20464;-75
2023/02/02 02:32:41;;;;;;;0.30;0.20;;;4.40;99.90;;;;;;5075899;28;20571;-76
2023/02/02 02:35:17;;;;;;;0.43;0.30;;;4.40;99.90;;;;;;5075793;28;20448;-75
2023/02/02 02:37:48;;;;;;;2.10;0.50;;;4.40;99.90;;;;;;5076148;28;20437;-75
2023/02/02 02:40:22;;;;;;;0.30;0.30;;;4.40;99.90;;;;;;5076329;28;20440;-75
2023/02/02 02:42:54;;;;;;;0.30;0.30;;;4.40;99.90;;;;;;5076006;28;20839;-75
2023/02/02 02:45:23;;;;;;;0.30;0.20;;;4.50;99.90;;;;;;5075930;28;20445;-75
2023/02/02 02:47:52;;;;;;;0.40;0.30;;;4.50;99.90;;;;;;5075877;28;20461;-76
2023/02/02 02:50:19;;;;;;;0.40;0.30;;;4.60;99.90;;;;;;5075445;28;20478;-75
2023/02/02 02:52:47;;;;;;;0.30;0.30;;;4.60;99.90;;;;;;5075534;28;20445;-75
2023/02/02 02:55:14;;;;;;;0.30;0.20;;;4.60;99.90;;;;;;5075396;28;20452;-76
2023/02/02 02:58:06;;;;;;;2.63;0.40;;;4.60;99.90;;;;;;5075726;28;20487;-75
2023/02/02 03:00:56;;;;;;;0.30;0.20;;;4.50;99.90;;;;;;5070519;28;20465;-75
2023/02/02 03:03:46;;;;;;;0.30;0.20;;;4.60;99.90;;;;;;5075506;28;20461;-75
2023/02/02 03:06:20;;;;;;;0.30;0.20;;;4.70;99.90;;;;;;5075242;28;20842;-75
2023/02/02 03:08:52;;;;;;;0.30;0.30;;;4.70;99.90;;;;;;5075559;28;20433;-75
2023/02/02 03:11:19;;;;;;;0.30;0.20;;;4.60;99.90;;;;;;5075508;28;20426;-75
2023/02/02 03:13:46;;;;;;;0.30;0.20;;;4.70;99.90;;;;;;5075101;28;20449;-75
2023/02/02 03:16:16;;;;;;;0.30;0.20;;;4.60;99.90;;;;;;5074884;28;20472;-75
2023/02/02 03:18:44;;;;;;;0.30;0.23;;;4.60;99.90;;;;;;5075330;28;20437;-75
2023/02/02 03:21:11;;;;;;;0.40;0.30;;;4.60;99.90;;;;;;5075292;28;20442;-75
2023/02/02 03:23:38;;;;;;;0.90;0.47;;;4.60;99.90;;;;;;5075258;28;20445;-75
2023/02/02 03:26:05;;;;;;;0.50;0.40;;;4.50;99.90;;;;;;5075109;28;20534;-75
2023/02/02 03:28:32;;;;;;;0.30;0.30;;;4.60;99.90;;;;;;5074830;28;20936;-75
2023/02/02 03:31:01;;;;;;;0.30;0.20;;;4.60;99.90;;;;;;5075010;28;20488;-75
2023/02/02 03:33:29;;;;;;;0.40;0.30;;;4.70;99.90;;;;;;5075032;28;20860;-76
2023/02/02 03:35:57;;;;;;;0.30;0.30;;;4.70;99.90;;;;;;5074615;28;20992;-75
2023/02/02 03:38:24;;;;;;;0.30;0.20;;;4.70;99.90;;;;;;5074953;28;20452;-75
2023/02/02 03:40:51;;;;;;;0.30;0.30;;;4.70;99.90;;;;;;5074906;28;20777;-75
2023/02/02 03:43:21;;;;;;;0.60;0.60;;;4.70;99.90;;;;;;5074827;28;20453;-75
2023/02/02 03:45:48;;;;;;;0.30;0.20;;;4.60;99.90;;;;;;5074439;28;21058;-75
2023/02/02 03:48:14;;;;;;;0.53;0.37;;;4.60;99.90;;;;;;5074417;28;20949;-75
2023/02/02 03:50:41;;;;;;;0.30;0.27;;;4.60;99.90;;;;;;5074613;28;20492;-75
2023/02/02 03:53:09;;;;;;;0.30;0.20;;;4.70;99.90;;;;;;5074337;28;20441;-75
2023/02/02 03:55:37;;;;;;;0.30;0.30;;;4.70;99.90;;;;;;5074533;28;20473;-75
2023/02/02 03:58:04;;;;;;;0.40;0.40;;;4.80;99.90;;;;;;5074526;28;20890;-75
2023/02/02 04:00:31;;;;;;;0.30;0.30;;;4.70;99.90;;;;;;5074477;28;20538;-75
2023/02/02 04:02:58;;;;;;;1.13;0.33;;;4.70;99.90;;;;;;5074448;28;20472;-75
2023/02/02 04:05:25;;;;;;;0.30;0.20;;;4.70;99.90;;;;;;5074439;28;20834;-75
2023/02/02 04:07:52;;;;;;;0.30;0.30;;;4.70;99.90;;;;;;5074365;28;20453;-75
2023/02/02 04:10:20;;;;;;;0.47;0.47;;;4.60;99.90;;;;;;5074266;28;20480;-75
2023/02/02 04:12:47;;;;;;;0.30;0.20;;;4.70;99.90;;;;;;5073955;28;20442;-75
2023/02/02 04:15:13;;;;;;;0.40;0.40;;;4.60;99.90;;;;;;5073824;28;20489;-75
2023/02/02 04:17:40;;;;;;;1.27;0.30;;;4.50;99.90;;;;;;5073854;28;20941;-75
2023/02/02 04:20:07;;;;;;;0.30;0.30;;;4.60;99.90;;;;;;5074109;28;20442;-75
2023/02/02 04:22:34;;;;;;;0.30;0.30;;;4.60;99.90;;;;;;5073779;28;20441;-75
2023/02/02 04:25:01;;;;;;;0.30;0.30;;;4.60;99.90;;;;;;5074009;28;20464;-77
2023/02/02 04:27:31;;;;;;;0.50;0.40;;;4.60;99.90;;;;;;5073991;28;20441;-78
2023/02/02 04:29:58;;;;;;;0.30;0.20;;;4.60;99.90;;;;;;5073843;28;20478;-78
2023/02/02 04:32:24;;;;;;;0.30;0.30;;;4.60;99.90;;;;;;5073911;28;20798;-78
2023/02/02 04:34:51;;;;;;;0.30;0.30;;;4.60;99.90;;;;;;5073846;28;20456;-78
2023/02/02 04:37:18;;;;;;;0.40;0.40;;;4.60;99.90;;;;;;5073747;28;20496;-78
2023/02/02 04:39:45;;;;;;;0.30;0.20;;;4.60;99.90;;;;;;5073797;28;20446;-78
2023/02/02 04:42:11;;;;;;;0.30;0.20;;;4.70;99.90;;;;;;5073753;28;20472;-78
2023/02/02 04:44:39;;;;;;;0.30;0.20;;;4.70;99.90;;;;;;5073734;28;20448;-78
2023/02/02 04:47:06;;;;;;;0.30;0.20;;;4.70;99.90;;;;;;5072915;28;20973;-78
2023/02/02 04:49:33;;;;;;;0.30;0.27;;;4.70;99.90;;;;;;5073527;28;20449;-78
2023/02/02 04:51:59;;;;;;;0.30;0.30;;;4.70;99.90;;;;;;5073610;28;20781;-78
2023/02/02 04:54:26;;;;;;;0.30;0.30;;;4.80;99.90;;;;;;5073593;28;20452;-78
2023/02/02 04:56:53;;;;;;;0.30;0.27;;;4.80;99.90;;;;;;5073259;28;20996;-78
2023/02/02 04:59:20;;;;;;;0.30;0.20;;;4.80;99.90;;;;;;5073203;28;20540;-78
2023/02/02 05:01:49;;;;;;;0.30;0.20;;;4.80;99.90;;;;;;5073501;28;20438;-78
2023/02/02 05:04:16;;;;;;;0.40;0.30;;;4.90;99.90;;;;;;5073436;28;20453;-78
2023/02/02 05:06:43;;;;;;;0.30;0.30;;;4.90;99.90;;;;;;5073354;28;20484;-78
2023/02/02 05:09:11;;;;;;;0.30;0.20;;;4.90;99.90;;;;;;5073128;28;20452;-78
2023/02/02 05:11:38;;;;;;;0.30;0.20;;;4.90;99.90;;;;;;5072964;28;20485;-78
2023/02/02 05:14:05;;;;;;;0.60;0.30;;;4.80;99.90;;;;;;5073294;28;20461;-78
2023/02/02 05:16:32;;;;;;;0.40;0.30;;;4.80;99.90;;;;;;5072851;28;21000;-78
2023/02/02 05:19:00;;;;;;;1.60;0.40;;;4.80;99.90;;;;;;5073716;28;20454;-78
2023/02/02 05:21:27;;;;;;;0.30;0.20;;;4.80;99.90;;;;;;5073034;28;20942;-78
2023/02/02 05:23:53;;;;;;;0.30;0.30;;;4.80;99.90;;;;;;5073301;28;20521;-78
2023/02/02 05:26:23;;;;;;;0.30;0.30;;;4.80;99.90;;;;;;5073171;28;20465;-78
2023/02/02 05:28:50;;;;;;;0.30;0.20;;;4.80;99.90;;;;;;5073210;28;20442;-78
2023/02/02 05:31:17;;;;;;;0.30;0.20;;;4.90;99.90;;;;;;5072808;28;21018;-79
2023/02/02 05:33:44;;;;;;;0.30;0.20;;;4.80;99.90;;;;;;5072835;28;20956;-79
2023/02/02 05:36:12;;;;;;;0.40;0.30;;;4.80;99.90;;;;;;5073112;28;20457;-79
2023/02/02 05:38:39;;;;;;;0.30;0.30;;;4.90;99.90;;;;;;5073141;28;20457;-79
2023/02/02 05:41:06;;;;;;;0.30;0.30;;;4.90;99.90;;;;;;5073115;28;20445;-79
2023/02/02 05:43:33;;;;;;;0.30;0.30;;;4.90;99.90;;;;;;5073147;28;20449;-79
2023/02/02 05:46:00;;;;;;;0.30;0.20;;;4.90;99.90;;;;;;5072987;28;20469;-79
2023/02/02 05:48:27;;;;;;;0.30;0.20;;;4.90;99.90;;;;;;5073094;28;20472;-78
2023/02/02 05:51:01;;;;;;;0.30;0.30;;;4.90;99.90;;;;;;5072928;28;20485;-78
2023/02/02 05:53:30;;;;;;;0.33;0.27;;;5.00;99.90;;;;;;5072747;28;20434;-78
2023/02/02 05:55:57;;;;;;;0.30;0.23;;;5.00;99.90;;;;;;5072923;28;20465;-78
2023/02/02 05:58:24;;;;;;;0.30;0.20;;;5.00;99.90;;;;;;5074452;28;20811;-79
2023/02/02 06:00:51;;;;;;;0.30;0.30;;;5.00;99.90;;;;;;5076784;28;20454;-79
2023/02/02 06:03:18;;;;;;;0.30;0.30;;;5.00;99.90;;;;;;5076764;28;20445;-79
2023/02/02 06:05:45;;;;;;;0.30;0.30;;;5.00;99.90;;;;;;5076528;28;20491;-79
2023/02/02 06:08:12;;;;;;;0.30;0.30;;;5.10;99.90;;;;;;5076660;28;20781;-79
2023/02/02 06:10:40;;;;;;;0.30;0.30;;;5.10;99.90;;;;;;5076253;28;21031;-79
2023/02/02 06:13:07;;;;;;;0.37;0.27;;;5.00;99.90;;;;;;5076543;28;20449;-78
2023/02/02 06:15:34;;;;;;;0.33;0.30;;;5.10;99.90;;;;;;5076115;28;20485;-78
2023/02/02 06:18:01;;;;;;;0.30;0.20;;;5.10;99.90;;;;;;5076421;28;20445;-78
2023/02/02 06:20:29;;;;;;;0.30;0.30;;;5.10;99.90;;;;;;5076429;28;20813;-78
2023/02/02 06:22:55;;;;;;;0.30;0.20;;;5.00;99.90;;;;;;5076384;28;20434;-78
2023/02/02 06:25:22;;;;;;;0.40;0.30;;;5.00;99.90;;;;;;5075955;28;20941;-78
2023/02/02 06:27:54;;;;;;;0.30;0.30;;;4.90;99.90;;;;;;5076299;28;20624;-78
2023/02/02 06:30:22;;;;;;;0.30;0.30;;;4.90;99.90;;;;;;5076201;28;20472;-78
2023/02/02 06:32:48;;;;;;;0.43;0.43;;;4.80;99.90;;;;;;5076218;28;20453;-78
2023/02/02 06:35:15;;;;;;;0.30;0.30;;;4.90;99.90;;;;;;5076091;28;20450;-78
2023/02/02 06:37:42;;;;;;;0.30;0.30;;;4.80;99.90;;;;;;5075861;28;20430;-78
2023/02/02 06:40:10;;;;;;;0.30;0.30;;;4.80;99.90;;;;;;5075772;28;20933;-78
2023/02/02 06:42:37;;;;;;;0.30;0.30;;;4.80;99.90;;;;;;5076028;28;20456;-77
2023/02/02 06:45:06;;;;;;;0.30;0.30;;;4.80;99.90;;;;;;5075593;28;20929;-78
2023/02/02 06:47:33;;;;;;;0.30;0.20;;;4.80;99.90;;;;;;5075658;28;20552;-78
2023/02/02 06:49:59;;;;;;;0.30;0.30;;;4.80;99.90;;;;;;5075854;28;20459;-78
2023/02/02 06:52:26;;;;;;;0.40;0.33;;;4.70;99.90;;;;;;5075859;28;20438;-78
2023/02/02 06:54:53;;;;;;;0.30;0.27;;;4.70;99.90;;;;;;5075778;28;20456;-78
2023/02/02 06:57:20;;;;;;;0.70;0.70;;;4.70;99.90;;;;;;5075675;28;20480;-78
2023/02/02 06:59:46;;;;;;;0.30;0.30;;;4.70;99.90;;;;;;5075719;28;20441;-77
2023/02/02 07:02:14;;;;;;;0.30;0.20;;;4.60;99.90;;;;;;5076376;28;20801;-78
2023/02/02 07:04:41;;;;;;;1.17;0.60;;;4.70;99.90;;;;;;5075290;28;20452;-78
2023/02/02 07:07:08;;;;;;;0.30;0.20;;;4.60;99.90;;;;;;5075548;28;20476;-78
2023/02/02 07:09:35;;;;;;;0.40;0.30;;;4.60;99.90;;;;;;5075195;28;20445;-78
2023/02/02 07:12:02;;;;;;;0.30;0.30;;;4.60;99.90;;;;;;5075441;28;20485;-78
2023/02/02 07:14:29;;;;;;;0.30;0.20;;;4.60;99.90;;;;;;5075337;28;20456;-78
2023/02/02 07:16:55;;;;;;;0.30;0.20;;;4.50;99.90;;;;;;5074864;28;20489;-78
2023/02/02 07:19:23;;;;;;;0.97;0.40;;;4.50;99.90;;;;;;5075322;28;20456;-78
2023/02/02 07:21:50;;;;;;;0.30;0.30;;;4.40;99.90;;;;;;5075320;28;20445;-78
2023/02/02 07:24:17;;;;;;;0.40;0.30;;;4.50;99.90;;;;;;5075240;28;20458;-78
2023/02/02 07:26:43;;;;;;;0.30;0.30;;;4.50;99.90;;;;;;5075171;28;20464;-78
2023/02/02 07:29:12;;;;;;;0.30;0.20;;;4.60;99.90;;;;;;5075145;28;20457;-77
2023/02/02 07:31:39;;;;;;;0.30;0.20;;;4.60;99.90;;;;;;5074812;28;20501;-78
2023/02/02 07:34:06;;;;;;;0.40;0.37;;;4.60;99.90;;;;;;5075083;28;20455;-78
2023/02/02 07:36:34;;;;;;;0.30;0.30;;;4.70;99.90;;;;;;5075310;28;20472;-78
2023/02/02 07:39:03;;;;;;;0.97;0.60;;;4.70;99.90;;;;;;5075029;28;20437;-77
2023/02/02 07:41:30;;;;;;;0.30;0.20;;;4.70;99.90;;;;;;5074882;28;20457;-77
2023/02/02 07:43:57;;;;;;;1.07;1.03;;;4.70;99.90;;;;;;5074887;28;20446;-77
2023/02/02 07:46:23;;;;;;;0.30;0.30;;;4.70;99.90;;;;;;5074789;28;20466;-78
2023/02/02 07:48:54;;;;;;;0.30;0.30;;;4.70;99.90;;;;;;5074745;28;20453;-77
2023/02/02 07:51:20;;;;;;;0.40;0.30;;;4.70;99.90;;;;;;5074661;28;20461;-78
2023/02/02 07:53:50;;;;;;;1.00;0.60;;;4.60;99.90;;;;;;5074672;28;20450;-78
2023/02/02 07:56:18;;;;;;;0.40;0.40;;;4.60;99.90;;;;;;5074569;28;20466;-78
2023/02/02 07:58:46;;;;;;;0.30;0.30;;;4.70;99.90;;;;;;5074552;28;20445;-78
2023/02/02 08:01:14;;;;;;;0.30;0.30;;;4.70;99.90;;;;;;5074502;28;20449;-78
2023/02/02 08:03:42;;;;;;;0.60;0.60;;;4.80;99.90;;;;;;5074157;28;20438;-78
2023/02/02 08:06:11;;;;;;;0.40;0.40;;;4.80;99.90;;;;;;5074313;28;20465;-77
2023/02/02 08:08:38;;;;;;;0.30;0.20;;;4.80;99.90;;;;;;5074097;28;20948;-78
2023/02/02 08:11:08;;;;;;;0.30;0.20;;;4.90;99.90;;;;;;5074271;28;20488;-78
2023/02/02 08:13:35;;;;;;;0.30;0.30;;;4.90;99.90;;;;;;5074340;28;20466;-78
2023/02/02 08:16:02;;;;;;;0.30;0.30;;;4.90;99.90;;;;;;5074158;28;20492;-77
2023/02/02 08:18:28;;;;;;;0.40;0.30;;;5.00;99.90;;;;;;5074130;28;20453;-78
2023/02/02 08:20:58;;;;;;;0.30;0.20;;;5.00;99.90;;;;;;5073455;28;20820;-78
2023/02/02 08:23:25;;;;;;;0.37;0.30;;;5.10;99.90;;;;;;5074014;28;20452;-78
2023/02/02 08:25:52;;;;;;;1.07;0.37;;;5.10;99.90;;;;;;5073849;28;20469;-78
2023/02/02 08:28:20;;;;;;;0.40;0.40;;;5.10;99.90;;;;;;5073929;28;20461;-78
2023/02/02 08:30:47;;;;;;;0.30;0.30;;;5.20;99.90;;;;;;5073912;28;20449;-79
2023/02/02 08:33:14;;;;;;;0.40;0.30;;;5.30;99.90;;;;;;5073948;28;20468;-79
2023/02/02 08:35:41;;;;;;;0.30;0.20;;;5.40;99.90;;;;;;5073746;28;20473;-78
2023/02/02 08:38:08;;;;;;;0.30;0.23;;;5.50;99.90;;;;;;5073530;28;20956;-78
2023/02/02 08:40:35;;;;;;;0.40;0.30;;;5.50;99.90;;;;;;5073763;28;20449;-78
2023/02/02 08:43:02;;;;;;;0.30;0.30;;;5.60;99.90;;;;;;5073690;28;20945;-78
2023/02/02 08:45:30;;;;;;;0.30;0.30;;;5.60;99.90;;;;;;5073727;28;20891;-78
2023/02/02 08:47:57;;;;;;;1.67;0.97;;;5.70;99.90;;;;;;5073963;28;20447;-78
2023/02/02 08:50:24;;;;;;;0.40;0.40;;;5.70;99.90;;;;;;5073349;28;20944;-78
2023/02/02 08:52:50;;;;;;;0.30;0.23;;;5.70;99.90;;;;;;5073597;28;20494;-78
2023/02/02 08:55:17;;;;;;;0.30;0.27;;;5.70;99.90;;;;;;5073558;28;20445;-78
2023/02/02 08:57:44;;;;;;;0.30;0.30;;;5.70;99.90;;;;;;5073581;28;20453;-78
2023/02/02 09:00:12;;;;;;;0.40;0.40;;;5.70;99.90;;;;;;5073543;28;20824;-78
2023/02/02 09:02:40;;;;;;;0.30;0.30;;;5.70;99.90;;;;;;5073760;28;20442;-78
2023/02/02 09:05:07;;;;;;;0.40;0.30;;;5.70;99.90;;;;;;5074344;28;20460;-78
2023/02/02 09:07:34;;;;;;;0.30;0.23;;;5.70;99.90;;;;;;5073410;28;20449;-78
2023/02/02 09:10:00;;;;;;;0.40;0.30;;;5.60;99.90;;;;;;5073451;28;20524;-78
2023/02/02 09:12:27;;;;;;;0.30;0.30;;;5.60;99.90;;;;;;5073082;28;20473;-78
2023/02/02 09:14:54;;;;;;;0.30;0.30;;;5.70;99.90;;;;;;5073194;28;20460;-80
2023/02/02 09:17:21;;;;;;;0.30;0.30;;;5.60;99.90;;;;;;5073204;28;20844;-78
2023/02/02 09:19:49;;;;;;;0.97;0.33;;;5.50;99.90;;;;;;5073221;28;20921;-78
2023/02/02 09:22:16;;;;;;;0.30;0.30;;;5.50;99.90;;;;;;5073330;28;20448;-78
2023/02/02 09:24:43;;;;;;;0.40;0.30;;;5.60;99.90;;;;;;5073270;28;20445;-78
2023/02/02 09:27:09;;;;;;;0.60;0.30;;;5.60;99.90;;;;;;5072921;28;20472;-78
2023/02/02 09:29:36;;;;;;;0.30;0.30;;;5.60;99.90;;;;;;5073247;28;20445;-78
2023/02/02 09:32:03;;;;;;;0.40;0.30;;;5.60;99.90;;;;;;5073952;28;20477;-78
2023/02/02 09:34:30;;;;;;;0.40;0.40;;;5.60;99.90;;;;;;5077357;28;20449;-78
2023/02/02 09:36:58;;;;;;;0.30;0.20;;;5.50;99.90;;;;;;5077251;28;20465;-78
2023/02/02 09:39:25;;;;;;;0.30;0.27;;;5.50;99.90;;;;;;5077287;28;20498;-78
2023/02/02 09:42:08;;;;;;;0.40;0.40;;;5.50;99.90;;;;;;5077204;28;20453;-77
2023/02/02 09:44:50;;;;;;;0.30;0.20;;;5.50;99.90;;;;;;5077447;28;20433;-77
2023/02/02 09:47:21;;;;;;;0.37;0.30;;;5.50;99.90;;;;;;5077052;28;20484;-77
2023/02/02 09:49:55;;;;;;;0.40;0.30;;;5.60;99.90;;;;;;5077055;28;20437;-78
2023/02/02 09:52:28;;;;;;;0.30;0.20;;;5.60;99.90;;;;;;5077065;28;20469;-78
2023/02/02 09:54:59;;;;;;;0.40;0.30;;;5.60;99.90;;;;;;5077048;28;20430;-78
2023/02/02 09:57:31;;;;;;;0.30;0.30;;;5.70;99.90;;;;;;5076888;28;20863;-78
2023/02/02 09:59:58;;;;;;;0.40;0.40;;;5.70;99.90;;;;;;5076613;28;20429;-78
2023/02/02 10:02:28;;;;;;;0.30;0.20;;;5.70;99.90;;;;;;5076541;28;20452;-78
2023/02/02 10:05:00;;;;;;;0.30;0.30;;;5.70;99.90;;;;;;5076671;28;20437;-78
2023/02/02 10:07:32;;;;;;;0.50;0.30;;;5.70;99.90;;;;;;5076798;28;20472;-78
2023/02/02 10:10:02;;;;;;;0.30;0.27;;;5.80;99.90;;;;;;5076708;28;20499;-78
2023/02/02 10:12:36;;;;;;;0.30;0.30;;;5.90;99.90;;;;;;5076650;28;20468;-77
2023/02/02 10:15:16;;;;;;;0.47;0.30;;;5.80;99.90;;;;;;5076196;28;20575;-78
2023/02/02 10:17:48;;;;;;;0.40;0.30;;;5.80;99.90;;;;;;5076580;28;20437;-78
2023/02/02 10:20:22;;;;;;;0.30;0.20;;;5.90;99.90;;;;;;5076515;28;20441;-78
2023/02/02 10:22:51;;;;;;;0.60;0.40;;;5.80;99.90;;;;;;5076473;28;20425;-78
2023/02/02 10:25:19;;;;;;;0.30;0.20;;;5.80;99.90;;;;;;5075960;28;20452;-78
2023/02/02 10:27:55;;;;;;;0.40;0.40;;;5.90;99.90;;;;;;5076390;28;20857;-78
2023/02/02 10:30:28;;;;;;;0.80;0.70;;;5.80;99.90;;;;;;5076353;28;20440;-78
2023/02/02 10:33:02;;;;;;;0.30;0.20;;;5.90;99.90;;;;;;5076245;28;20476;-78
2023/02/02 10:35:36;;;;;;;0.30;0.20;;;5.80;99.90;;;;;;5076222;28;20472;-78
2023/02/02 10:38:13;;;;;;;0.30;0.30;;;5.80;99.90;;;;;;5076229;28;20429;-77
2023/02/02 10:40:50;;;;;;;0.80;0.30;;;5.70;99.90;;;;;;5075907;28;20866;-78
2023/02/02 10:43:45;;;;;;;0.30;0.30;;;5.70;99.90;;;;;;5075653;28;20433;-77
2023/02/02 10:46:19;;;;;;;0.37;0.37;;;5.70;99.90;;;;;;5075638;28;20915;-78
2023/02/02 10:48:48;;;;;;;0.30;0.30;;;5.70;99.90;;;;;;5076046;28;20434;-78
2023/02/02 10:51:21;;;;;;;0.30;0.30;;;5.70;99.90;;;;;;5075932;28;20506;-78
2023/02/02 10:53:54;;;;;;;0.37;0.30;;;5.70;99.90;;;;;;5075887;28;20535;-77
2023/02/02 10:56:26;;;;;;;0.60;0.30;;;5.70;99.90;;;;;;5075520;28;20857;-78
2023/02/02 10:59:01;;;;;;;0.30;0.30;;;5.70;99.90;;;;;;5075472;28;20438;-77
2023/02/02 11:01:28;;;;;;;1.90;0.33;;;5.70;99.90;;;;;;5075465;28;20429;-78
2023/02/02 11:06:51;;;;;;;0.30;0.30;;;5.80;99.90;;;;;;5075180;28;20831;-78
2023/02/02 11:09:22;;;;;;;0.80;0.40;;;5.80;99.90;;;;;;5075345;28;20429;-78
2023/02/02 11:11:53;;;;;;;0.30;0.30;;;5.90;99.90;;;;;;5075199;28;21000;-78
2023/02/02 11:14:29;;;;;;;0.30;0.20;;;5.70;99.90;;;;;;5075500;28;20437;-78
2023/02/02 11:17:04;;;;;;;0.30;0.20;;;5.60;99.90;;;;;;5075136;28;20488;-78
2023/02/02 11:19:33;;;;;;;0.70;0.70;;;5.60;99.90;;;;;;5075632;28;20438;-82
2023/02/02 11:22:02;;;;;;;0.30;0.20;;;5.50;99.90;;;;;;5075485;28;20449;-78
2023/02/02 11:24:35;;;;;;;0.30;0.30;;;5.50;99.90;;;;;;5075408;28;20458;-78
2023/02/02 11:27:05;;;;;;;0.40;0.40;;;5.50;99.90;;;;;;5075745;28;20519;-81
2023/02/02 11:29:36;;;;;;;0.97;0.40;;;5.50;99.90;;;;;;5075542;28;20786;-81
2023/02/02 11:32:19;;;;;;;0.30;0.30;;;5.60;99.90;;;;;;5075277;28;20524;-81
2023/02/02 11:34:47;;;;;;;0.40;0.30;;;5.70;99.90;;;;;;5074934;28;20434;-80
2023/02/02 11:37:16;;;;;;;0.30;0.20;;;5.80;99.90;;;;;;5074939;28;20457;-80
2023/02/02 11:39:44;;;;;;;0.30;0.30;;;5.90;99.90;;;;;;5075081;28;20454;-80
2023/02/02 11:42:15;;;;;;;0.30;0.30;;;5.90;99.90;;;;;;5075130;28;20816;-80
2023/02/02 11:44:47;;;;;;;0.60;0.30;;;6.00;99.90;;;;;;5075017;28;20844;-80
2023/02/02 11:47:24;;;;;;;0.73;0.37;;;6.10;99.90;;;;;;5074892;28;20808;-80
2023/02/02 11:49:52;;;;;;;0.30;0.20;;;6.20;99.90;;;;;;5075111;28;20823;-80
2023/02/02 11:52:21;;;;;;;0.70;0.70;;;6.20;99.90;;;;;;5074688;28;20482;-80
2023/02/02 11:54:51;;;;;;;0.30;0.30;;;6.20;99.90;;;;;;5074083;28;20952;-80
2023/02/02 11:57:20;;;;;;;0.90;0.50;;;6.10;99.90;;;;;;5073952;28;20469;-80
2023/02/02 11:59:49;;;;;;;0.70;0.30;;;6.00;99.90;;;;;;5074578;28;20449;-80
2023/02/02 12:02:28;;;;;;;0.57;0.40;;;6.00;99.90;;;;;;5074634;28;20417;-80
2023/02/02 12:05:10;;;;;;;1.30;0.30;;;6.10;99.90;;;;;;5074529;28;20434;-79
2023/02/02 12:07:37;;;;;;;0.30;0.30;;;6.10;99.90;;;;;;5074173;28;20932;-80
2023/02/02 12:10:14;;;;;;;0.30;0.30;;;6.10;99.90;;;;;;5074084;28;20484;-80
2023/02/02 12:12:49;;;;;;;0.30;0.20;;;6.10;99.90;;;;;;5074292;28;20475;-80
2023/02/02 12:15:27;;;;;;;0.30;0.30;;;6.10;99.90;;;;;;5073692;28;20839;-80
2023/02/02 12:18:04;;;;;;;1.53;0.53;;;6.10;99.90;;;;;;5074227;28;20438;-80
2023/02/02 12:20:41;;;;;;;0.50;0.30;;;6.20;99.90;;;;;;5074163;28;20433;-80
2023/02/02 12:23:25;;;;;;;3.30;0.43;;;6.20;99.90;;;;;;5074512;28;20920;-80
2023/02/02 12:26:17;;;;;;;0.33;0.27;;;6.30;99.90;;;;;;5073754;28;20980;-80
2023/02/02 12:29:07;;;;;;;0.30;0.30;;;6.30;99.90;;;;;;5074042;28;20444;-80
2023/02/02 12:31:46;;;;;;;0.30;0.30;;;6.40;99.90;;;;;;5073924;28;20604;-80
2023/02/02 12:34:25;;;;;;;0.50;0.50;;;6.40;99.90;;;;;;5074169;28;20461;-80
2023/02/02 12:37:02;;;;;;;0.40;0.40;;;6.40;99.90;;;;;;5073704;28;20466;-80
2023/02/02 12:39:34;;;;;;;0.30;0.30;;;6.40;99.90;;;;;;5073561;28;20429;-80
2023/02/02 12:42:36;;;;;;;0.40;0.30;;;6.50;99.90;;;;;;5074266;28;20433;-80
2023/02/02 12:45:18;;;;;;;0.30;0.30;;;6.40;99.90;;;;;;5058133;28;20461;-79
2023/02/02 12:47:56;;;;;;;0.30;0.30;;;6.30;99.90;;;;;;5073967;28;20449;-80
2023/02/02 12:50:29;;;;;;;0.30;0.20;;;6.20;99.90;;;;;;5073749;28;20430;-79
2023/02/02 12:53:11;;;;;;;0.30;0.30;;;6.20;99.90;;;;;;5073608;28;20469;-79
2023/02/02 12:55:44;;;;;;;0.30;0.30;;;6.20;99.90;;;;;;5073606;28;20461;-79
2023/02/02 12:58:24;;;;;;;0.40;0.30;;;6.20;99.90;;;;;;5073331;28;20434;-79
2023/02/02 13:01:22;;;;;;;0.57;0.30;;;6.10;99.90;;;;;;5073647;28;20804;-79
2023/02/02 13:04:20;;;;;;;0.30;0.30;;;6.10;99.90;;;;;;5073513;28;20429;-79
2023/02/02 13:07:20;;;;;;;0.40;0.30;;;6.10;99.90;;;;;;5072986;28;20988;-79
2023/02/02 13:09:58;;;;;;;0.40;0.30;;;6.00;99.90;;;;;;5074106;28;20446;-79
2023/02/02 13:12:26;;;;;;;0.30;0.20;;;6.00;99.90;;;;;;5074242;28;20469;-79
2023/02/02 13:14:57;;;;;;;0.30;0.30;;;6.00;99.90;;;;;;5073275;28;20450;-79
2023/02/02 13:17:30;;;;;;;0.70;0.70;;;5.90;99.90;;;;;;5072994;28;20472;-79
2023/02/02 13:20:01;;;;;;;0.30;0.30;;;6.00;99.90;;;;;;5073450;28;20524;-79
2023/02/02 13:22:31;;;;;;;0.30;0.20;;;6.00;99.90;;;;;;5073359;28;20436;-79
2023/02/02 13:25:02;;;;;;;0.30;0.30;;;5.90;99.90;;;;;;5073387;28;20433;-79